createdAt,value
2018-05-06T00:01:09.586Z,998.50
2018-05-06T00:02:09.706Z,998.53
2018-05-06T00:02:48.830Z,998.49
2018-05-06T00:03:48.970Z,998.50
2018-05-06T00:05:10.095Z,998.50
2018-05-06T00:06:10.218Z,998.48
2018-05-06T00:06:49.353Z,998.52
2018-05-06T00:07:49.499Z,998.47
2018-05-06T00:08:49.641Z,998.47
2018-05-06T00:09:49.788Z,998.48
2018-05-06T00:10:49.931Z,998.50
2018-05-06T00:12:11.056Z,998.49
2018-05-06T00:12:50.189Z,998.53
2018-05-06T00:13:50.322Z,998.50
2018-05-06T00:16:22.921Z,998.52
2018-05-06T00:17:44.046Z,998.51
2018-05-06T00:18:23.177Z,998.55
2018-05-06T00:19:23.328Z,998.54
2018-05-06T00:20:23.462Z,998.54
2018-05-06T00:21:44.597Z,998.53
2018-05-06T00:22:23.722Z,998.56
2018-05-06T00:23:44.858Z,998.51
2018-05-06T00:24:23.989Z,998.53
2018-05-06T00:25:45.106Z,998.53
2018-05-06T00:26:24.237Z,998.54
2018-05-06T00:27:24.390Z,998.52
2018-05-06T00:28:45.514Z,998.53
2018-05-06T00:29:45.638Z,998.51
2018-05-06T00:32:18.012Z,998.49
2018-05-06T00:33:18.160Z,998.47
2018-05-06T00:33:57.273Z,998.50
2018-05-06T00:34:57.408Z,998.52
2018-05-06T00:35:57.545Z,998.49
2018-05-06T00:36:57.706Z,998.49
2018-05-06T00:37:57.836Z,998.48
2018-05-06T00:38:57.960Z,998.50
2018-05-06T00:39:58.099Z,998.47
2018-05-06T00:41:19.222Z,998.47
2018-05-06T00:42:19.345Z,998.49
2018-05-06T00:42:58.482Z,998.48
2018-05-06T00:43:58.626Z,998.48
2018-05-06T00:44:58.754Z,998.49
2018-05-06T00:45:58.890Z,998.53
2018-05-06T00:48:31.223Z,998.54
2018-05-06T00:49:31.357Z,998.50
2018-05-06T00:50:31.492Z,998.53
2018-05-06T00:51:31.621Z,998.56
2018-05-06T00:52:31.760Z,998.53
2018-05-06T00:55:04.332Z,998.51
2018-05-06T00:56:25.458Z,998.57
2018-05-06T00:57:04.586Z,998.55
2018-05-06T00:58:25.717Z,998.55
2018-05-06T00:59:04.870Z,998.55
2018-05-06T01:01:58.349Z,998.56
2018-05-06T01:02:37.483Z,998.56
2018-05-06T01:03:37.611Z,998.57
2018-05-06T01:04:37.757Z,998.57
2018-05-06T01:05:58.885Z,998.58
2018-05-06T01:06:38.013Z,998.62
2018-05-06T01:07:59.141Z,998.60
2018-05-06T01:08:38.270Z,998.59
2018-05-06T01:09:38.409Z,998.57
2018-05-06T01:10:59.537Z,998.58
2018-05-06T01:11:38.666Z,998.56
2018-05-06T01:12:38.800Z,998.61
2018-05-06T01:13:38.935Z,998.60
2018-05-06T01:14:39.067Z,998.70
2018-05-06T01:15:39.201Z,998.69
2018-05-06T01:16:39.345Z,998.68
2018-05-06T01:17:39.486Z,998.71
2018-05-06T01:18:39.621Z,998.67
2018-05-06T01:19:39.755Z,998.70
2018-05-06T01:20:39.887Z,998.71
2018-05-06T01:21:40.026Z,998.70
2018-05-06T01:22:40.164Z,998.70
2018-05-06T01:24:01.371Z,998.72
2018-05-06T01:24:40.376Z,998.66
2018-05-06T01:25:40.533Z,998.68
2018-05-06T01:26:40.677Z,998.70
2018-05-06T01:27:40.806Z,998.69
2018-05-06T01:28:40.945Z,998.67
2018-05-06T01:29:41.075Z,998.68
2018-05-06T01:30:41.225Z,998.70
2018-05-06T01:31:41.364Z,998.65
2018-05-06T01:32:41.495Z,998.70
2018-05-06T01:33:41.639Z,998.70
2018-05-06T01:34:41.836Z,998.68
2018-05-06T01:35:41.906Z,998.72
2018-05-06T01:36:42.049Z,998.70
2018-05-06T01:37:42.180Z,998.70
2018-05-06T01:38:42.320Z,998.69
2018-05-06T01:39:42.455Z,998.68
2018-05-06T01:42:14.732Z,998.65
2018-05-06T01:43:14.619Z,998.64
2018-05-06T01:44:14.754Z,998.64
2018-05-06T01:45:14.889Z,998.63
2018-05-06T01:46:15.024Z,998.65
2018-05-06T01:47:15.166Z,998.62
2018-05-06T01:49:47.505Z,998.59
2018-05-06T01:50:47.640Z,998.61
2018-05-06T01:51:47.780Z,998.60
2018-05-06T01:53:08.922Z,998.60
2018-05-06T01:53:48.051Z,998.61
2018-05-06T01:54:48.181Z,998.60
2018-05-06T01:55:48.319Z,998.58
2018-05-06T01:56:48.486Z,998.61
2018-05-06T01:57:48.603Z,998.61
2018-05-06T01:59:09.732Z,998.60
2018-05-06T01:59:48.857Z,998.62
2018-05-06T02:00:49.024Z,998.60
2018-05-06T02:01:49.132Z,998.63
2018-05-06T02:02:49.277Z,998.61
2018-05-06T02:05:21.600Z,998.67
2018-05-06T02:06:21.741Z,998.64
2018-05-06T02:07:21.872Z,998.64
2018-05-06T02:08:43.090Z,998.65
2018-05-06T02:09:22.128Z,998.58
2018-05-06T02:10:22.259Z,998.59
2018-05-06T02:11:22.397Z,998.64
2018-05-06T02:12:22.558Z,998.62
2018-05-06T02:13:22.690Z,998.62
2018-05-06T02:14:22.825Z,998.60
2018-05-06T02:15:22.979Z,998.63
2018-05-06T02:16:23.113Z,998.61
2018-05-06T02:17:23.237Z,998.63
2018-05-06T02:18:23.361Z,998.63
2018-05-06T02:19:44.493Z,998.63
2018-05-06T02:20:23.660Z,998.65
2018-05-06T02:21:23.752Z,998.64
2018-05-06T02:22:44.892Z,998.65
2018-05-06T02:23:24.018Z,998.63
2018-05-06T02:24:45.139Z,998.60
2018-05-06T02:25:24.267Z,998.62
2018-05-06T02:26:24.432Z,998.60
2018-05-06T02:27:24.557Z,998.63
2018-05-06T02:28:45.687Z,998.61
2018-05-06T02:29:45.807Z,998.61
2018-05-06T02:30:45.950Z,998.57
2018-05-06T02:31:25.086Z,998.57
2018-05-06T02:32:25.223Z,998.57
2018-05-06T02:33:25.351Z,998.57
2018-05-06T02:34:25.504Z,998.56
2018-05-06T02:35:25.616Z,998.58
2018-05-06T02:36:25.753Z,998.58
2018-05-06T02:37:25.886Z,998.55
2018-05-06T02:38:26.021Z,998.56
2018-05-06T02:39:47.144Z,998.55
2018-05-06T02:40:26.273Z,998.53
2018-05-06T02:42:58.707Z,998.58
2018-05-06T02:44:19.828Z,998.57
2018-05-06T02:44:58.963Z,998.60
2018-05-06T02:45:59.115Z,998.61
2018-05-06T02:47:20.237Z,998.58
2018-05-06T02:48:20.357Z,998.60
2018-05-06T02:48:59.491Z,998.64
2018-05-06T02:49:59.624Z,998.63
2018-05-06T02:50:59.762Z,998.63
2018-05-06T02:51:59.893Z,998.64
2018-05-06T02:53:21.012Z,998.64
2018-05-06T02:54:21.133Z,998.67
2018-05-06T02:55:00.259Z,998.69
2018-05-06T02:56:21.394Z,998.64
2018-05-06T02:57:00.533Z,998.65
2018-05-06T02:58:00.665Z,998.65
2018-05-06T02:59:00.811Z,998.67
2018-05-06T03:00:00.941Z,998.67
2018-05-06T03:01:01.079Z,998.68
2018-05-06T03:02:01.212Z,998.64
2018-05-06T03:03:01.353Z,998.62
2018-05-06T03:04:01.489Z,998.62
2018-05-06T03:05:01.622Z,998.62
2018-05-06T03:06:01.851Z,998.63
2018-05-06T03:07:01.896Z,998.62
2018-05-06T03:08:02.051Z,998.60
2018-05-06T03:09:02.186Z,998.62
2018-05-06T03:10:23.317Z,998.62
2018-05-06T03:12:34.749Z,998.66
2018-05-06T03:13:34.883Z,998.64
2018-05-06T03:14:56.006Z,998.63
2018-05-06T03:15:35.201Z,998.64
2018-05-06T03:16:35.321Z,998.66
2018-05-06T03:17:35.461Z,998.64
2018-05-06T03:18:35.590Z,998.63
2018-05-06T03:19:56.780Z,998.66
2018-05-06T03:20:35.856Z,998.67
2018-05-06T03:21:35.990Z,998.69
2018-05-06T03:22:36.127Z,998.68
2018-05-06T03:23:36.276Z,998.70
2018-05-06T03:24:36.412Z,998.65
2018-05-06T03:25:36.544Z,998.65
2018-05-06T03:26:36.691Z,998.67
2018-05-06T03:27:57.816Z,998.67
2018-05-06T03:28:36.944Z,998.70
2018-05-06T03:29:58.070Z,998.65
2018-05-06T03:30:37.210Z,998.68
2018-05-06T03:31:37.339Z,998.70
2018-05-06T03:32:58.464Z,998.72
2018-05-06T03:33:37.587Z,998.70
2018-05-06T03:34:37.764Z,998.75
2018-05-06T03:35:37.894Z,998.74
2018-05-06T03:36:38.033Z,998.75
2018-05-06T03:37:38.185Z,998.75
2018-05-06T03:38:38.310Z,998.73
2018-05-06T03:39:38.447Z,998.73
2018-05-06T03:40:38.586Z,998.75
2018-05-06T03:41:38.740Z,998.71
2018-05-06T03:42:38.859Z,998.70
2018-05-06T03:43:38.993Z,998.70
2018-05-06T03:44:40.005Z,998.66
2018-05-06T03:47:11.956Z,998.70
2018-05-06T03:48:12.076Z,998.68
2018-05-06T03:49:12.217Z,998.61
2018-05-06T03:50:33.356Z,998.69
2018-05-06T03:51:33.468Z,998.66
2018-05-06T03:52:12.585Z,998.65
2018-05-06T03:53:12.724Z,998.63
2018-05-06T03:54:12.867Z,998.62
2018-05-06T03:55:12.997Z,998.65
2018-05-06T03:56:13.130Z,998.68
2018-05-06T03:57:13.268Z,998.69
2018-05-06T03:58:13.398Z,998.71
2018-05-06T03:59:13.531Z,998.70
2018-05-06T04:00:13.673Z,998.71
2018-05-06T04:01:13.807Z,998.71
2018-05-06T04:02:13.939Z,998.69
2018-05-06T04:03:14.072Z,998.72
2018-05-06T04:04:35.251Z,998.66
2018-05-06T04:05:14.388Z,998.70
2018-05-06T04:06:14.526Z,998.69
2018-05-06T04:07:14.659Z,998.77
2018-05-06T04:08:14.800Z,998.76
2018-05-06T04:09:14.933Z,998.72
2018-05-06T04:10:15.061Z,998.69
2018-05-06T04:11:36.190Z,998.70
2018-05-06T04:12:15.393Z,998.70
2018-05-06T04:13:15.401Z,998.67
2018-05-06T04:14:36.523Z,998.71
2018-05-06T04:15:15.646Z,998.74
2018-05-06T04:16:15.783Z,998.75
2018-05-06T04:17:15.914Z,998.75
2018-05-06T04:18:16.046Z,998.73
2018-05-06T04:19:16.183Z,998.78
2018-05-06T04:20:16.318Z,998.77
2018-05-06T04:21:16.534Z,998.78
2018-05-06T04:22:16.588Z,998.78
2018-05-06T04:23:16.721Z,998.84
2018-05-06T04:24:16.864Z,998.86
2018-05-06T04:25:16.995Z,998.86
2018-05-06T04:26:17.129Z,998.84
2018-05-06T04:27:17.276Z,998.85
2018-05-06T04:28:17.412Z,998.82
2018-05-06T04:29:17.577Z,998.84
2018-05-06T04:30:17.716Z,998.88
2018-05-06T04:31:17.853Z,998.87
2018-05-06T04:32:17.988Z,998.82
2018-05-06T04:33:18.152Z,998.84
2018-05-06T04:34:18.279Z,998.84
2018-05-06T04:35:18.411Z,998.86
2018-05-06T04:36:18.557Z,998.90
2018-05-06T04:37:18.711Z,998.88
2018-05-06T04:38:18.849Z,998.86
2018-05-06T04:39:39.974Z,998.85
2018-05-06T04:40:19.147Z,998.87
2018-05-06T04:42:51.119Z,998.84
2018-05-06T04:44:12.312Z,998.91
2018-05-06T04:45:12.366Z,998.89
2018-05-06T04:45:51.518Z,998.85
2018-05-06T04:46:51.649Z,998.88
2018-05-06T04:47:51.778Z,998.89
2018-05-06T04:48:51.912Z,998.91
2018-05-06T04:49:52.061Z,998.91
2018-05-06T04:50:52.192Z,998.91
2018-05-06T04:52:13.318Z,998.93
2018-05-06T04:52:52.445Z,998.92
2018-05-06T04:53:52.602Z,998.89
2018-05-06T04:54:52.736Z,998.92
2018-05-06T04:55:52.871Z,998.91
2018-05-06T04:56:53.058Z,998.90
2018-05-06T04:57:53.195Z,998.91
2018-05-06T04:58:53.328Z,998.86
2018-05-06T05:00:14.452Z,998.82
2018-05-06T05:00:53.601Z,998.85
2018-05-06T05:01:53.745Z,998.82
2018-05-06T05:02:53.880Z,998.82
2018-05-06T05:03:54.039Z,998.85
2018-05-06T05:04:54.162Z,998.80
2018-05-06T05:05:54.295Z,998.84
2018-05-06T05:06:54.431Z,998.84
2018-05-06T05:07:54.595Z,998.76
2018-05-06T05:08:54.726Z,998.81
2018-05-06T05:09:54.861Z,998.81
2018-05-06T05:10:54.998Z,998.79
2018-05-06T05:11:55.165Z,998.81
2018-05-06T05:13:16.291Z,998.82
2018-05-06T05:13:55.428Z,998.81
2018-05-06T05:16:28.201Z,998.83
2018-05-06T05:17:28.334Z,998.85
2018-05-06T05:18:49.469Z,998.92
2018-05-06T05:19:49.590Z,998.90
2018-05-06T05:20:28.729Z,998.94
2018-05-06T05:21:28.867Z,998.93
2018-05-06T05:22:29.008Z,998.96
2018-05-06T05:23:29.138Z,998.93
2018-05-06T05:24:29.272Z,998.92
2018-05-06T05:25:29.419Z,998.93
2018-05-06T05:26:29.557Z,998.93
2018-05-06T05:27:29.687Z,998.93
2018-05-06T05:28:29.825Z,998.91
2018-05-06T05:29:29.960Z,998.88
2018-05-06T05:30:51.087Z,998.90
2018-05-06T05:31:30.214Z,998.95
2018-05-06T05:34:23.338Z,998.92
2018-05-06T05:35:02.447Z,998.91
2018-05-06T05:36:02.584Z,998.93
2018-05-06T05:37:02.708Z,998.97
2018-05-06T05:38:02.847Z,998.93
2018-05-06T05:39:02.976Z,998.88
2018-05-06T05:40:03.110Z,998.90
2018-05-06T05:44:07.394Z,998.89
2018-05-06T05:45:08.019Z,998.94
2018-05-06T05:46:07.679Z,998.96
2018-05-06T05:47:07.809Z,998.94
2018-05-06T05:48:07.939Z,998.97
2018-05-06T05:50:40.407Z,999.03
2018-05-06T05:51:40.538Z,999.01
2018-05-06T05:54:13.404Z,999.07
2018-05-06T05:55:13.539Z,999.07
2018-05-06T05:56:34.671Z,999.05
2018-05-06T05:57:13.812Z,999.07
2018-05-06T05:58:34.947Z,999.06
2018-05-06T05:59:35.069Z,999.09
2018-05-06T06:00:14.197Z,999.07
2018-05-06T06:01:35.390Z,999.06
2018-05-06T06:02:14.455Z,999.05
2018-05-06T06:03:14.589Z,999.04
2018-05-06T06:04:14.725Z,999.04
2018-05-06T06:05:14.866Z,999.08
2018-05-06T06:06:15.005Z,999.06
2018-05-06T06:10:19.463Z,999.06
2018-05-06T06:11:19.594Z,999.08
2018-05-06T06:12:19.742Z,999.04
2018-05-06T06:13:19.917Z,999.03
2018-05-06T06:14:20.050Z,999.04
2018-05-06T06:15:20.183Z,999.06
2018-05-06T06:16:20.354Z,999.11
2018-05-06T06:17:20.486Z,999.08
2018-05-06T06:18:20.618Z,999.09
2018-05-06T06:19:20.758Z,999.08
2018-05-06T06:20:20.888Z,999.06
2018-05-06T06:21:21.023Z,999.08
2018-05-06T06:22:42.148Z,999.10
2018-05-06T06:24:53.535Z,999.06
2018-05-06T06:26:14.663Z,999.04
2018-05-06T06:27:14.786Z,999.00
2018-05-06T06:28:14.935Z,999.00
2018-05-06T06:28:54.051Z,998.99
2018-05-06T06:29:54.182Z,998.98
2018-05-06T06:30:54.323Z,999.00
2018-05-06T06:31:54.476Z,998.95
2018-05-06T06:32:54.643Z,998.94
2018-05-06T06:33:54.749Z,998.95
2018-05-06T06:34:54.870Z,998.97
2018-05-06T06:35:55.042Z,998.96
2018-05-06T06:36:55.174Z,998.98
2018-05-06T06:37:55.311Z,998.94
2018-05-06T06:38:55.465Z,998.95
2018-05-06T06:39:55.601Z,998.95
2018-05-06T06:40:55.734Z,998.99
2018-05-06T06:41:55.874Z,998.95
2018-05-06T06:42:56.005Z,998.98
2018-05-06T06:43:56.140Z,998.97
2018-05-06T06:44:56.276Z,998.98
2018-05-06T06:45:56.410Z,998.98
2018-05-06T06:46:56.555Z,998.97
2018-05-06T06:47:56.774Z,998.97
2018-05-06T06:48:56.821Z,998.96
2018-05-06T06:49:56.960Z,998.93
2018-05-06T06:50:57.095Z,998.96
2018-05-06T06:51:57.231Z,998.95
2018-05-06T06:52:57.375Z,998.94
2018-05-06T06:53:57.513Z,998.95
2018-05-06T06:54:57.658Z,998.93
2018-05-06T06:55:57.786Z,998.90
2018-05-06T06:56:57.926Z,998.91
2018-05-06T06:57:58.057Z,998.91
2018-05-06T06:58:58.198Z,998.94
2018-05-06T06:59:58.336Z,998.91
2018-05-06T07:00:58.485Z,998.93
2018-05-06T07:01:58.621Z,998.91
2018-05-06T07:02:58.748Z,998.91
2018-05-06T07:03:58.887Z,998.89
2018-05-06T07:04:59.050Z,998.86
2018-05-06T07:05:59.193Z,998.93
2018-05-06T07:06:59.311Z,998.91
2018-05-06T07:07:59.454Z,998.91
2018-05-06T07:08:59.611Z,998.88
2018-05-06T07:09:59.743Z,998.90
2018-05-06T07:10:59.888Z,998.89
2018-05-06T07:13:32.670Z,998.93
2018-05-06T07:14:32.825Z,998.88
2018-05-06T07:15:32.959Z,998.89
2018-05-06T07:16:33.097Z,998.90
2018-05-06T07:17:33.233Z,998.90
2018-05-06T07:20:05.714Z,998.92
2018-05-06T07:21:26.842Z,998.95
2018-05-06T07:22:06.025Z,998.94
2018-05-06T07:23:06.074Z,998.94
2018-05-06T07:24:27.278Z,998.94
2018-05-06T07:25:06.411Z,998.96
2018-05-06T07:26:06.583Z,998.96
2018-05-06T07:27:06.726Z,998.95
2018-05-06T07:28:06.857Z,998.98
2018-05-06T07:29:07.049Z,998.97
2018-05-06T07:30:07.137Z,999.01
2018-05-06T07:31:07.264Z,998.99
2018-05-06T07:32:28.399Z,998.98
2018-05-06T07:34:39.784Z,998.97
2018-05-06T07:35:39.921Z,998.98
2018-05-06T07:36:40.054Z,998.99
2018-05-06T07:37:40.195Z,999.00
2018-05-06T07:40:33.771Z,998.96
2018-05-06T07:43:05.855Z,998.97
2018-05-06T07:43:44.980Z,998.96
2018-05-06T07:44:45.140Z,998.94
2018-05-06T07:45:45.276Z,998.96
2018-05-06T07:46:45.416Z,998.99
2018-05-06T07:47:45.553Z,998.95
2018-05-06T07:48:45.694Z,998.96
2018-05-06T07:49:45.832Z,998.94
2018-05-06T07:51:06.961Z,998.94
2018-05-06T07:51:46.193Z,998.94
2018-05-06T07:54:18.821Z,998.97
2018-05-06T07:55:18.955Z,998.95
2018-05-06T07:56:19.124Z,998.92
2018-05-06T07:57:40.240Z,998.91
2018-05-06T07:58:19.363Z,998.91
2018-05-06T07:59:40.495Z,998.91
2018-05-06T08:00:19.652Z,998.91
2018-05-06T08:01:19.782Z,998.94
2018-05-06T08:03:51.872Z,999.00
2018-05-06T08:04:52.014Z,998.99
2018-05-06T08:05:52.147Z,999.00
2018-05-06T08:06:52.298Z,999.01
2018-05-06T08:07:52.433Z,999.03
2018-05-06T08:08:52.571Z,999.03
2018-05-06T08:09:52.708Z,999.03
2018-05-06T08:12:24.997Z,999.01
2018-05-06T08:14:56.966Z,998.98
2018-05-06T08:15:57.101Z,999.00
2018-05-06T08:16:57.251Z,998.98
2018-05-06T08:17:57.385Z,999.00
2018-05-06T08:18:57.525Z,998.98
2018-05-06T08:19:57.663Z,998.92
2018-05-06T08:20:57.821Z,998.95
2018-05-06T08:21:57.958Z,998.98
2018-05-06T08:22:58.097Z,998.93
2018-05-06T08:24:19.232Z,998.95
2018-05-06T08:24:58.357Z,998.95
2018-05-06T08:26:19.481Z,998.98
2018-05-06T08:26:58.687Z,998.98
2018-05-06T08:29:31.040Z,998.99
2018-05-06T08:30:31.186Z,998.96
2018-05-06T08:31:31.319Z,998.98
2018-05-06T08:32:31.457Z,998.98
2018-05-06T08:33:31.598Z,998.98
2018-05-06T08:34:52.727Z,998.95
2018-05-06T08:35:52.845Z,998.92
2018-05-06T08:36:31.971Z,998.93
2018-05-06T08:37:32.110Z,998.96
2018-05-06T08:38:32.258Z,998.94
2018-05-06T08:39:53.387Z,998.93
2018-05-06T08:40:32.516Z,998.93
2018-05-06T08:41:32.653Z,998.93
2018-05-06T08:42:32.801Z,998.93
2018-05-06T08:43:32.939Z,998.94
2018-05-06T08:44:33.069Z,998.92
2018-05-06T08:45:33.209Z,998.91
2018-05-06T08:46:33.376Z,998.83
2018-05-06T08:47:54.499Z,998.85
2018-05-06T08:48:33.629Z,998.91
2018-05-06T08:49:33.764Z,998.88
2018-05-06T08:50:33.932Z,998.91
2018-05-06T08:51:55.050Z,998.84
2018-05-06T08:52:34.189Z,998.92
2018-05-06T08:53:55.351Z,998.89
2018-05-06T08:54:34.471Z,998.91
2018-05-06T08:55:34.611Z,998.90
2018-05-06T08:56:55.742Z,998.90
2018-05-06T08:57:34.938Z,998.87
2018-05-06T08:58:35.021Z,998.87
2018-05-06T08:59:35.210Z,998.95
2018-05-06T09:00:35.302Z,998.97
2018-05-06T09:01:35.440Z,998.95
2018-05-06T09:02:35.577Z,998.95
2018-05-06T09:03:36.611Z,998.91
2018-05-06T09:06:08.130Z,998.87
2018-05-06T09:07:08.270Z,998.87
2018-05-06T09:08:08.430Z,998.92
2018-05-06T09:09:29.556Z,998.92
2018-05-06T09:10:08.687Z,998.89
2018-05-06T09:11:08.879Z,998.86
2018-05-06T09:12:08.966Z,998.85
2018-05-06T09:13:09.104Z,998.86
2018-05-06T09:14:30.233Z,998.90
2018-05-06T09:15:09.370Z,998.90
2018-05-06T09:16:09.507Z,998.91
2018-05-06T09:17:09.655Z,998.91
2018-05-06T09:18:09.793Z,998.88
2018-05-06T09:19:09.935Z,998.87
2018-05-06T09:20:10.090Z,998.88
2018-05-06T09:21:31.232Z,998.86
2018-05-06T09:22:10.364Z,998.89
2018-05-06T09:23:10.514Z,998.89
2018-05-06T09:24:31.640Z,998.90
2018-05-06T09:25:31.808Z,998.88
2018-05-06T09:27:43.220Z,998.96
2018-05-06T09:29:04.348Z,998.92
2018-05-06T09:29:43.756Z,998.94
2018-05-06T09:30:43.735Z,998.93
2018-05-06T09:32:04.780Z,998.95
2018-05-06T09:32:43.904Z,998.92
2018-05-06T09:33:44.043Z,998.91
2018-05-06T09:36:16.225Z,998.91
2018-05-06T09:37:16.366Z,998.87
2018-05-06T09:38:16.513Z,998.88
2018-05-06T09:39:37.647Z,998.89
2018-05-06T09:40:16.834Z,998.87
2018-05-06T09:41:16.959Z,998.86
2018-05-06T09:42:17.099Z,998.86
2018-05-06T09:43:17.246Z,998.87
2018-05-06T09:44:17.389Z,998.83
2018-05-06T09:45:38.518Z,998.84
2018-05-06T09:46:17.789Z,998.80
2018-05-06T09:47:32.866Z,998.74
2018-05-06T09:48:17.944Z,998.79
2018-05-06T09:49:18.106Z,998.74
2018-05-06T09:50:18.247Z,998.78
2018-05-06T09:51:18.383Z,998.76
2018-05-06T09:52:18.525Z,998.75
2018-05-06T09:53:18.663Z,998.77
2018-05-06T09:54:18.801Z,998.74
2018-05-06T09:55:18.943Z,998.75
2018-05-06T09:56:19.078Z,998.75
2018-05-06T09:57:19.215Z,998.73
2018-05-06T09:58:19.355Z,998.68
2018-05-06T09:59:19.499Z,998.68
2018-05-06T10:00:19.646Z,998.67
2018-05-06T10:01:19.803Z,998.66
2018-05-06T10:02:19.937Z,998.65
2018-05-06T10:03:20.084Z,998.67
2018-05-06T10:04:20.250Z,998.64
2018-05-06T10:05:20.363Z,998.67
2018-05-06T10:06:20.528Z,998.73
2018-05-06T10:07:20.673Z,998.65
2018-05-06T10:08:20.843Z,998.60
2018-05-06T10:09:20.963Z,998.66
2018-05-06T10:10:21.114Z,998.60
2018-05-06T10:11:21.250Z,998.68
2018-05-06T10:12:21.424Z,998.65
2018-05-06T10:13:21.561Z,998.66
2018-05-06T10:14:21.700Z,998.69
2018-05-06T10:15:21.839Z,998.66
2018-05-06T10:16:21.983Z,998.68
2018-05-06T10:17:22.119Z,998.69
2018-05-06T10:18:22.260Z,998.67
2018-05-06T10:19:22.428Z,998.68
2018-05-06T10:20:22.563Z,998.70
2018-05-06T10:21:22.707Z,998.72
2018-05-06T10:22:22.877Z,998.72
2018-05-06T10:23:22.994Z,998.69
2018-05-06T10:24:23.741Z,998.75
2018-05-06T10:25:23.305Z,998.73
2018-05-06T10:26:23.427Z,998.68
2018-05-06T10:27:23.577Z,998.70
2018-05-06T10:28:23.709Z,998.65
2018-05-06T10:29:23.848Z,998.67
2018-05-06T10:30:23.986Z,998.62
2018-05-06T10:31:24.119Z,998.59
2018-05-06T10:32:24.259Z,998.64
2018-05-06T10:33:24.415Z,998.62
2018-05-06T10:34:24.558Z,998.60
2018-05-06T10:35:24.756Z,998.63
2018-05-06T10:36:24.763Z,998.64
2018-05-06T10:37:24.902Z,998.62
2018-05-06T10:38:25.125Z,998.66
2018-05-06T10:39:25.223Z,998.71
2018-05-06T10:40:25.362Z,998.69
2018-05-06T10:41:26.270Z,998.76
2018-05-06T10:42:25.726Z,998.82
2018-05-06T10:43:25.820Z,998.66
2018-05-06T10:44:26.006Z,999.04
2018-05-06T10:45:26.145Z,998.80
2018-05-06T10:46:26.296Z,998.50
2018-05-06T10:47:26.434Z,998.58
2018-05-06T10:48:26.573Z,998.52
2018-05-06T10:49:26.740Z,998.51
2018-05-06T10:50:26.908Z,998.52
2018-05-06T10:51:27.026Z,998.48
2018-05-06T10:52:27.195Z,998.45
2018-05-06T10:53:27.326Z,998.42
2018-05-06T10:54:27.473Z,998.38
2018-05-06T10:55:27.608Z,998.37
2018-05-06T10:56:27.791Z,998.37
2018-05-06T10:57:27.929Z,998.34
2018-05-06T10:58:28.149Z,998.34
2018-05-06T10:59:28.177Z,998.34
2018-05-06T11:00:28.347Z,998.33
2018-05-06T11:01:28.463Z,998.30
2018-05-06T11:02:28.613Z,998.33
2018-05-06T11:03:28.756Z,998.29
2018-05-06T11:04:28.889Z,998.34
2018-05-06T11:05:29.035Z,998.34
2018-05-06T11:06:29.181Z,998.27
2018-05-06T11:07:29.323Z,998.23
2018-05-06T11:08:29.534Z,998.27
2018-05-06T11:09:29.555Z,998.27
2018-05-06T11:10:29.788Z,998.29
2018-05-06T11:11:29.842Z,998.28
2018-05-06T11:12:29.980Z,998.18
2018-05-06T11:13:30.112Z,998.23
2018-05-06T11:14:30.250Z,998.27
2018-05-06T11:15:30.389Z,998.21
2018-05-06T11:16:30.539Z,998.23
2018-05-06T11:17:30.682Z,998.13
2018-05-06T11:18:30.823Z,998.13
2018-05-06T11:19:30.959Z,998.18
2018-05-06T11:20:31.117Z,998.24
2018-05-06T11:21:31.251Z,998.18
2018-05-06T11:22:31.393Z,998.10
2018-05-06T11:23:31.534Z,998.14
2018-05-06T11:24:31.697Z,998.12
2018-05-06T11:25:31.835Z,998.05
2018-05-06T11:26:31.973Z,998.11
2018-05-06T11:27:32.135Z,998.12
2018-05-06T11:28:32.269Z,998.10
2018-05-06T11:29:32.414Z,997.98
2018-05-06T11:30:32.551Z,998.08
2018-05-06T11:31:32.689Z,997.89
2018-05-06T11:32:32.827Z,998.03
2018-05-06T11:33:32.977Z,998.08
2018-05-06T11:34:33.113Z,997.91
2018-05-06T11:35:33.270Z,997.89
2018-05-06T11:36:33.389Z,997.99
2018-05-06T11:37:33.537Z,998.05
2018-05-06T11:38:33.679Z,998.06
2018-05-06T11:39:33.847Z,998.07
2018-05-06T11:40:33.969Z,998.06
2018-05-06T11:41:34.111Z,998.03
2018-05-06T11:42:34.248Z,997.96
2018-05-06T11:43:34.393Z,998.00
2018-05-06T11:44:34.528Z,998.02
2018-05-06T11:45:34.669Z,997.95
2018-05-06T11:46:34.823Z,998.03
2018-05-06T11:47:34.956Z,998.01
2018-05-06T11:48:35.095Z,998.05
2018-05-06T11:49:35.238Z,998.04
2018-05-06T11:50:35.374Z,997.99
2018-05-06T11:51:35.517Z,998.02
2018-05-06T11:52:35.670Z,997.96
2018-05-06T11:53:35.803Z,997.96
2018-05-06T11:54:35.943Z,997.94
2018-05-06T11:55:36.094Z,997.94
2018-05-06T11:56:36.234Z,997.88
2018-05-06T11:57:36.372Z,998.00
2018-05-06T11:58:36.521Z,997.96
2018-05-06T11:59:36.680Z,997.97
2018-05-06T12:00:36.807Z,997.97
2018-05-06T12:01:36.951Z,998.00
2018-05-06T12:02:37.107Z,997.96
2018-05-06T12:03:37.249Z,997.94
2018-05-06T12:04:37.463Z,997.94
2018-05-06T12:05:37.469Z,997.94
2018-05-06T12:06:37.623Z,997.84
2018-05-06T12:07:37.764Z,997.88
2018-05-06T12:08:37.913Z,997.85
2018-05-06T12:09:38.077Z,997.86
2018-05-06T12:10:38.228Z,997.82
2018-05-06T12:11:38.379Z,997.95
2018-05-06T12:12:38.517Z,997.93
2018-05-06T12:13:38.665Z,997.92
2018-05-06T12:14:38.800Z,997.87
2018-05-06T12:15:38.943Z,997.85
2018-05-06T12:16:39.088Z,997.85
2018-05-06T12:17:39.253Z,997.87
2018-05-06T12:18:39.380Z,997.87
2018-05-06T12:19:39.526Z,997.80
2018-05-06T12:20:39.671Z,997.80
2018-05-06T12:21:39.840Z,997.87
2018-05-06T12:22:39.972Z,997.89
2018-05-06T12:23:40.138Z,997.87
2018-05-06T12:24:40.281Z,997.86
2018-05-06T12:25:40.429Z,997.81
2018-05-06T12:26:40.570Z,997.82
2018-05-06T12:27:40.716Z,997.83
2018-05-06T12:28:40.847Z,997.83
2018-05-06T12:29:40.993Z,997.86
2018-05-06T12:30:41.138Z,997.80
2018-05-06T12:31:41.281Z,997.76
2018-05-06T12:32:41.431Z,997.71
2018-05-06T12:33:41.567Z,997.76
2018-05-06T12:34:41.717Z,997.74
2018-05-06T12:35:41.865Z,997.78
2018-05-06T12:36:42.003Z,997.74
2018-05-06T12:37:42.143Z,997.82
2018-05-06T12:38:42.286Z,997.69
2018-05-06T12:39:42.428Z,997.69
2018-05-06T12:40:42.568Z,997.68
2018-05-06T12:41:42.715Z,997.65
2018-05-06T12:42:42.856Z,997.67
2018-05-06T12:43:43.002Z,997.69
2018-05-06T12:44:43.149Z,997.70
2018-05-06T12:45:43.319Z,997.74
2018-05-06T12:46:43.458Z,997.68
2018-05-06T12:47:43.605Z,997.74
2018-05-06T12:48:43.742Z,997.74
2018-05-06T12:49:43.912Z,997.67
2018-05-06T12:50:44.054Z,997.71
2018-05-06T12:51:44.201Z,997.79
2018-05-06T12:52:44.339Z,997.80
2018-05-06T12:53:44.483Z,997.70
2018-05-06T12:54:44.626Z,997.73
2018-05-06T12:55:44.773Z,997.65
2018-05-06T12:56:44.921Z,997.65
2018-05-06T12:57:45.070Z,997.65
2018-05-06T12:58:45.218Z,997.55
2018-05-06T12:59:45.361Z,997.58
2018-05-06T13:00:45.505Z,997.47
2018-05-06T13:01:45.647Z,997.56
2018-05-06T13:02:45.796Z,997.53
2018-05-06T13:03:45.933Z,997.47
2018-05-06T13:04:46.074Z,997.56
2018-05-06T13:05:47.832Z,997.47
2018-05-06T13:06:46.404Z,997.45
2018-05-06T13:07:48.811Z,997.40
2018-05-06T13:08:46.723Z,997.46
2018-05-06T13:09:46.872Z,997.44
2018-05-06T13:10:47.014Z,997.45
2018-05-06T13:11:47.155Z,997.39
2018-05-06T13:12:47.291Z,997.37
2018-05-06T13:13:47.434Z,997.39
2018-05-06T13:14:47.575Z,997.39
2018-05-06T13:15:47.710Z,997.36
2018-05-06T13:16:47.855Z,997.38
2018-05-06T13:17:47.997Z,997.41
2018-05-06T13:18:48.139Z,997.38
2018-05-06T13:19:48.320Z,997.37
2018-05-06T13:20:48.442Z,997.33
2018-05-06T13:21:48.591Z,997.34
2018-05-06T13:22:48.728Z,997.29